sensor_id;sensor_type;location;lat;lon;timestamp;pressure;altitude;pressure_sealevel;temperature;humidity
7774;BME280;3931;42.260;23.116;2022-10-17T00:00:24;96761.56;;;16.49;52.75
7774;BME280;3931;42.260;23.116;2022-10-17T00:02:50;96752.13;;;16.71;52.55
7774;BME280;3931;42.260;23.116;2022-10-17T00:05:16;96755.22;;;16.61;52.95
7774;BME280;3931;42.260;23.116;2022-10-17T00:07:42;96758.81;;;16.74;52.46
7774;BME280;3931;42.260;23.116;2022-10-17T00:10:08;96751.44;;;16.55;51.67
7774;BME280;3931;42.260;23.116;2022-10-17T00:12:34;96762.72;;;16.23;52.98
7774;BME280;3931;42.260;23.116;2022-10-17T00:15:03;96760.53;;;16.43;52.35
7774;BME280;3931;42.260;23.116;2022-10-17T00:17:30;96766.47;;;16.45;52.20
7774;BME280;3931;42.260;23.116;2022-10-17T00:19:57;96767.34;;;16.00;52.78
7774;BME280;3931;42.260;23.116;2022-10-17T00:22:24;96756.22;;;16.13;52.93
7774;BME280;3931;42.260;23.116;2022-10-17T00:24:50;96763.78;;;16.41;52.43
7774;BME280;3931;42.260;23.116;2022-10-17T00:27:16;96757.13;;;16.23;52.28
7774;BME280;3931;42.260;23.116;2022-10-17T00:29:42;96758.25;;;15.84;53.50
7774;BME280;3931;42.260;23.116;2022-10-17T00:32:13;96763.13;;;16.09;53.21
7774;BME280;3931;42.260;23.116;2022-10-17T00:34:39;96762.34;;;15.79;53.57
7774;BME280;3931;42.260;23.116;2022-10-17T00:37:05;96767.34;;;16.00;53.52
7774;BME280;3931;42.260;23.116;2022-10-17T00:39:31;96766.50;;;15.87;53.55
7774;BME280;3931;42.260;23.116;2022-10-17T00:41:57;96765.81;;;16.12;53.05
7774;BME280;3931;42.260;23.116;2022-10-17T00:44:56;96766.50;;;16.16;53.05
7774;BME280;3931;42.260;23.116;2022-10-17T00:47:24;96769.84;;;16.11;53.23
7774;BME280;3931;42.260;23.116;2022-10-17T00:49:50;96774.31;;;15.80;53.69
7774;BME280;3931;42.260;23.116;2022-10-17T00:52:18;96767.91;;;15.95;53.44
7774;BME280;3931;42.260;23.116;2022-10-17T00:54:48;96765.97;;;15.92;53.51
7774;BME280;3931;42.260;23.116;2022-10-17T00:57:16;96773.13;;;15.93;52.91
7774;BME280;3931;42.260;23.116;2022-10-17T00:59:44;96769.59;;;16.05;52.76
7774;BME280;3931;42.260;23.116;2022-10-17T01:02:14;96768.81;;;16.05;52.89
7774;BME280;3931;42.260;23.116;2022-10-17T01:04:43;96769.34;;;16.29;53.00
7774;BME280;3931;42.260;23.116;2022-10-17T01:07:10;96776.81;;;15.90;52.97
7774;BME280;3931;42.260;23.116;2022-10-17T01:09:36;96769.25;;;16.03;53.03
7774;BME280;3931;42.260;23.116;2022-10-17T01:12:08;96780.53;;;16.00;53.41
7774;BME280;3931;42.260;23.116;2022-10-17T01:14:42;96777.03;;;15.96;53.44
7774;BME280;3931;42.260;23.116;2022-10-17T01:17:18;96769.44;;;15.35;54.81
7774;BME280;3931;42.260;23.116;2022-10-17T01:20:04;96763.94;;;15.00;56.32
7774;BME280;3931;42.260;23.116;2022-10-17T01:22:41;96762.84;;;14.97;56.26
7774;BME280;3931;42.260;23.116;2022-10-17T01:25:21;96760.91;;;14.94;56.38
7774;BME280;3931;42.260;23.116;2022-10-17T01:27:55;96757.69;;;14.60;56.77
7774;BME280;3931;42.260;23.116;2022-10-17T01:33:16;96771.22;;;15.46;55.58
7774;BME280;3931;42.260;23.116;2022-10-17T01:35:50;96768.94;;;15.57;54.64
7774;BME280;3931;42.260;23.116;2022-10-17T01:38:22;96764.34;;;15.79;54.34
7774;BME280;3931;42.260;23.116;2022-10-17T01:40:52;96768.66;;;15.67;54.62
7774;BME280;3931;42.260;23.116;2022-10-17T01:43:30;96767.78;;;15.70;54.56
7774;BME280;3931;42.260;23.116;2022-10-17T01:46:00;96766.50;;;15.87;54.10
7774;BME280;3931;42.260;23.116;2022-10-17T01:48:33;96771.53;;;15.64;54.09
7774;BME280;3931;42.260;23.116;2022-10-17T01:51:03;96778.00;;;15.45;54.55
7774;BME280;3931;42.260;23.116;2022-10-17T01:53:35;96775.97;;;15.77;54.06
7774;BME280;3931;42.260;23.116;2022-10-17T01:56:05;96777.00;;;15.67;54.04
7774;BME280;3931;42.260;23.116;2022-10-17T01:58:36;96776.75;;;16.07;53.69
7774;BME280;3931;42.260;23.116;2022-10-17T02:01:06;96778.31;;;15.63;53.91
7774;BME280;3931;42.260;23.116;2022-10-17T02:03:34;96788.56;;;15.53;54.93
7774;BME280;3931;42.260;23.116;2022-10-17T02:06:00;96780.59;;;15.19;55.74
7774;BME280;3931;42.260;23.116;2022-10-17T02:08:28;96790.13;;;15.54;54.53
7774;BME280;3931;42.260;23.116;2022-10-17T02:10:56;96790.69;;;15.29;54.80
7774;BME280;3931;42.260;23.116;2022-10-17T02:13:33;96799.94;;;15.75;53.78
7774;BME280;3931;42.260;23.116;2022-10-17T02:16:11;96799.34;;;15.67;53.74
7774;BME280;3931;42.260;23.116;2022-10-17T02:18:57;96798.47;;;15.70;53.60
7774;BME280;3931;42.260;23.116;2022-10-17T02:21:31;96805.09;;;15.60;53.45
7774;BME280;3931;42.260;23.116;2022-10-17T02:24:06;96808.16;;;15.50;53.89
7774;BME280;3931;42.260;23.116;2022-10-17T02:26:40;96802.91;;;15.19;54.39
7774;BME280;3931;42.260;23.116;2022-10-17T02:29:13;96802.72;;;15.75;53.63
7774;BME280;3931;42.260;23.116;2022-10-17T02:31:44;96791.75;;;15.68;53.59
7774;BME280;3931;42.260;23.116;2022-10-17T02:34:17;96800.91;;;15.84;53.71
7774;BME280;3931;42.260;23.116;2022-10-17T02:36:49;96807.50;;;15.90;53.31
7774;BME280;3931;42.260;23.116;2022-10-17T02:39:18;96799.13;;;15.90;52.94
7774;BME280;3931;42.260;23.116;2022-10-17T02:41:46;96797.94;;;15.27;54.16
7774;BME280;3931;42.260;23.116;2022-10-17T02:44:13;96804.28;;;15.27;55.48
7774;BME280;3931;42.260;23.116;2022-10-17T02:46:40;96805.25;;;15.69;54.55
7774;BME280;3931;42.260;23.116;2022-10-17T02:49:12;96809.28;;;15.52;54.46
7774;BME280;3931;42.260;23.116;2022-10-17T02:51:44;96811.75;;;15.50;55.12
7774;BME280;3931;42.260;23.116;2022-10-17T02:54:16;96824.13;;;15.94;54.13
7774;BME280;3931;42.260;23.116;2022-10-17T02:56:49;96825.38;;;15.12;55.21
7774;BME280;3931;42.260;23.116;2022-10-17T02:59:19;96828.44;;;15.34;55.22
7774;BME280;3931;42.260;23.116;2022-10-17T03:01:48;96827.00;;;14.94;55.63
7774;BME280;3931;42.260;23.116;2022-10-17T03:04:16;96829.25;;;15.51;54.60
7774;BME280;3931;42.260;23.116;2022-10-17T03:06:44;96823.91;;;15.40;54.75
7774;BME280;3931;42.260;23.116;2022-10-17T03:09:11;96823.63;;;15.83;54.17
7774;BME280;3931;42.260;23.116;2022-10-17T03:11:37;96826.25;;;15.25;54.64
7774;BME280;3931;42.260;23.116;2022-10-17T03:14:03;96831.50;;;15.40;54.63
7774;BME280;3931;42.260;23.116;2022-10-17T03:16:30;96836.00;;;15.33;54.96
7774;BME280;3931;42.260;23.116;2022-10-17T03:18:56;96827.00;;;15.46;54.43
7774;BME280;3931;42.260;23.116;2022-10-17T03:21:22;96821.31;;;15.33;54.66
7774;BME280;3931;42.260;23.116;2022-10-17T03:23:48;96825.34;;;15.48;54.64
7774;BME280;3931;42.260;23.116;2022-10-17T03:26:14;96822.34;;;15.71;54.19
7774;BME280;3931;42.260;23.116;2022-10-17T03:28:41;96818.53;;;15.49;54.31
7774;BME280;3931;42.260;23.116;2022-10-17T03:31:08;96817.22;;;15.38;55.09
7774;BME280;3931;42.260;23.116;2022-10-17T03:33:34;96812.75;;;15.72;54.44
7774;BME280;3931;42.260;23.116;2022-10-17T03:36:04;96819.25;;;15.53;54.42
7774;BME280;3931;42.260;23.116;2022-10-17T03:38:31;96826.72;;;15.72;54.48
7774;BME280;3931;42.260;23.116;2022-10-17T03:40:57;96820.63;;;15.45;54.88
7774;BME280;3931;42.260;23.116;2022-10-17T03:43:23;96826.50;;;15.31;55.65
7774;BME280;3931;42.260;23.116;2022-10-17T03:45:49;96828.00;;;15.19;55.92
7774;BME280;3931;42.260;23.116;2022-10-17T03:48:15;96824.19;;;15.62;55.00
7774;BME280;3931;42.260;23.116;2022-10-17T03:50:41;96828.69;;;15.88;54.22
7774;BME280;3931;42.260;23.116;2022-10-17T03:53:08;96826.88;;;15.49;55.14
7774;BME280;3931;42.260;23.116;2022-10-17T03:55:34;96826.28;;;16.02;53.98
7774;BME280;3931;42.260;23.116;2022-10-17T03:58:00;96829.25;;;16.12;53.36
7774;BME280;3931;42.260;23.116;2022-10-17T04:00:26;96840.56;;;15.76;54.02
7774;BME280;3931;42.260;23.116;2022-10-17T04:02:53;96836.06;;;15.66;54.13
7774;BME280;3931;42.260;23.116;2022-10-17T04:05:19;96835.78;;;15.76;53.91
7774;BME280;3931;42.260;23.116;2022-10-17T04:07:45;96844.41;;;15.50;54.37
7774;BME280;3931;42.260;23.116;2022-10-17T04:10:11;96849.78;;;15.41;54.53
7774;BME280;3931;42.260;23.116;2022-10-17T04:12:37;96848.97;;;15.60;54.10
7774;BME280;3931;42.260;23.116;2022-10-17T04:15:05;96832.56;;;15.78;53.82
7774;BME280;3931;42.260;23.116;2022-10-17T04:17:32;96844.47;;;15.30;53.99
7774;BME280;3931;42.260;23.116;2022-10-17T04:19:58;96845.44;;;15.72;53.68
7774;BME280;3931;42.260;23.116;2022-10-17T04:22:24;96848.69;;;15.54;54.13
7774;BME280;3931;42.260;23.116;2022-10-17T04:24:50;96852.63;;;15.73;53.84
7774;BME280;3931;42.260;23.116;2022-10-17T04:27:16;96855.31;;;15.60;53.78
7774;BME280;3931;42.260;23.116;2022-10-17T04:29:42;96861.78;;;15.57;53.13
7774;BME280;3931;42.260;23.116;2022-10-17T04:32:09;96860.03;;;15.63;53.92
7774;BME280;3931;42.260;23.116;2022-10-17T04:34:35;96869.19;;;15.64;53.63
7774;BME280;3931;42.260;23.116;2022-10-17T04:37:02;96868.91;;;15.74;53.46
7774;BME280;3931;42.260;23.116;2022-10-17T04:39:28;96868.75;;;15.65;53.72
7774;BME280;3931;42.260;23.116;2022-10-17T04:41:54;96872.03;;;15.92;52.84
7774;BME280;3931;42.260;23.116;2022-10-17T04:44:20;96873.88;;;15.67;53.04
7774;BME280;3931;42.260;23.116;2022-10-17T04:46:47;96875.00;;;15.69;53.37
7774;BME280;3931;42.260;23.116;2022-10-17T04:49:13;96873.69;;;15.42;53.89
7774;BME280;3931;42.260;23.116;2022-10-17T04:51:39;96866.16;;;15.39;54.07
7774;BME280;3931;42.260;23.116;2022-10-17T04:54:05;96870.47;;;15.07;54.26
7774;BME280;3931;42.260;23.116;2022-10-17T04:56:32;96859.81;;;13.84;58.81
7774;BME280;3931;42.260;23.116;2022-10-17T04:58:58;96865.25;;;14.54;57.41
7774;BME280;3931;42.260;23.116;2022-10-17T05:01:25;96867.59;;;14.95;56.28
7774;BME280;3931;42.260;23.116;2022-10-17T05:03:52;96867.91;;;14.61;56.99
7774;BME280;3931;42.260;23.116;2022-10-17T05:06:20;96873.84;;;14.43;57.06
7774;BME280;3931;42.260;23.116;2022-10-17T05:08:47;96872.81;;;13.91;58.25
7774;BME280;3931;42.260;23.116;2022-10-17T05:11:18;96876.94;;;14.85;56.71
7774;BME280;3931;42.260;23.116;2022-10-17T05:13:45;96879.47;;;14.79;56.30
7774;BME280;3931;42.260;23.116;2022-10-17T05:16:14;96869.66;;;14.91;55.79
7774;BME280;3931;42.260;23.116;2022-10-17T05:18:40;96881.97;;;14.34;56.76
7774;BME280;3931;42.260;23.116;2022-10-17T05:21:06;96881.75;;;14.45;57.05
7774;BME280;3931;42.260;23.116;2022-10-17T05:23:32;96889.25;;;14.68;56.50
7774;BME280;3931;42.260;23.116;2022-10-17T05:25:59;96883.75;;;14.44;56.62
7774;BME280;3931;42.260;23.116;2022-10-17T05:28:25;96894.75;;;14.51;56.27
7774;BME280;3931;42.260;23.116;2022-10-17T05:30:51;96902.91;;;14.82;55.54
7774;BME280;3931;42.260;23.116;2022-10-17T05:33:17;96899.53;;;14.51;55.62
7774;BME280;3931;42.260;23.116;2022-10-17T05:35:43;96910.28;;;15.08;54.95
7774;BME280;3931;42.260;23.116;2022-10-17T05:38:09;96902.38;;;15.58;54.00
7774;BME280;3931;42.260;23.116;2022-10-17T05:40:36;96907.53;;;15.44;54.00
7774;BME280;3931;42.260;23.116;2022-10-17T05:43:03;96914.00;;;15.73;52.84
7774;BME280;3931;42.260;23.116;2022-10-17T05:45:29;96925.59;;;16.03;53.13
7774;BME280;3931;42.260;23.116;2022-10-17T05:47:56;96923.53;;;16.36;51.87
7774;BME280;3931;42.260;23.116;2022-10-17T05:50:22;96924.91;;;17.02;51.14
7774;BME280;3931;42.260;23.116;2022-10-17T05:52:52;96927.91;;;17.48;50.45
7774;BME280;3931;42.260;23.116;2022-10-17T05:55:18;96925.63;;;17.18;49.76
7774;BME280;3931;42.260;23.116;2022-10-17T05:57:45;96934.34;;;18.34;48.66
7774;BME280;3931;42.260;23.116;2022-10-17T06:00:12;96930.59;;;18.83;48.05
7774;BME280;3931;42.260;23.116;2022-10-17T06:02:38;96937.63;;;19.62;45.95
7774;BME280;3931;42.260;23.116;2022-10-17T06:05:05;96932.78;;;20.42;44.83
7774;BME280;3931;42.260;23.116;2022-10-17T06:07:31;96933.09;;;20.89;43.87
7774;BME280;3931;42.260;23.116;2022-10-17T06:09:57;96930.94;;;22.37;41.50
7774;BME280;3931;42.260;23.116;2022-10-17T06:12:23;96933.59;;;23.70;39.29
7774;BME280;3931;42.260;23.116;2022-10-17T06:14:50;96935.44;;;23.58;39.37
7774;BME280;3931;42.260;23.116;2022-10-17T06:17:16;96929.25;;;23.89;39.09
7774;BME280;3931;42.260;23.116;2022-10-17T06:19:42;96942.72;;;23.50;39.38
7774;BME280;3931;42.260;23.116;2022-10-17T06:22:09;96925.75;;;23.94;39.14
7774;BME280;3931;42.260;23.116;2022-10-17T06:24:35;96942.44;;;23.48;39.27
7774;BME280;3931;42.260;23.116;2022-10-17T06:27:01;96941.47;;;23.51;39.73
7774;BME280;3931;42.260;23.116;2022-10-17T06:29:27;96937.56;;;23.49;39.44
7774;BME280;3931;42.260;23.116;2022-10-17T06:31:54;96946.34;;;23.51;39.24
7774;BME280;3931;42.260;23.116;2022-10-17T06:34:20;96945.50;;;23.06;40.36
7774;BME280;3931;42.260;23.116;2022-10-17T06:36:47;96943.16;;;22.67;40.61
7774;BME280;3931;42.260;23.116;2022-10-17T06:39:13;96940.44;;;22.72;40.69
7774;BME280;3931;42.260;23.116;2022-10-17T06:41:39;96951.56;;;21.87;41.55
7774;BME280;3931;42.260;23.116;2022-10-17T06:44:06;96947.84;;;22.37;41.39
7774;BME280;3931;42.260;23.116;2022-10-17T06:46:35;96947.78;;;23.32;39.91
7774;BME280;3931;42.260;23.116;2022-10-17T06:49:02;96941.66;;;23.62;39.52
7774;BME280;3931;42.260;23.116;2022-10-17T06:51:29;96933.97;;;24.27;38.74
7774;BME280;3931;42.260;23.116;2022-10-17T06:53:56;96939.63;;;23.34;39.92
7774;BME280;3931;42.260;23.116;2022-10-17T06:56:22;96947.94;;;23.28;40.08
7774;BME280;3931;42.260;23.116;2022-10-17T06:58:49;96942.25;;;23.52;39.85
7774;BME280;3931;42.260;23.116;2022-10-17T07:01:16;96936.75;;;24.07;39.21
7774;BME280;3931;42.260;23.116;2022-10-17T07:03:42;96937.28;;;23.76;39.47
7774;BME280;3931;42.260;23.116;2022-10-17T07:06:09;96936.94;;;23.30;40.31
7774;BME280;3931;42.260;23.116;2022-10-17T07:08:35;96931.50;;;24.14;39.21
7774;BME280;3931;42.260;23.116;2022-10-17T07:11:08;96931.97;;;23.98;39.19
7774;BME280;3931;42.260;23.116;2022-10-17T07:13:34;96939.22;;;23.55;39.64
7774;BME280;3931;42.260;23.116;2022-10-17T07:16:00;96935.38;;;24.17;38.56
7774;BME280;3931;42.260;23.116;2022-10-17T07:18:26;96933.78;;;23.81;38.85
7774;BME280;3931;42.260;23.116;2022-10-17T07:20:52;96944.25;;;23.07;40.50
7774;BME280;3931;42.260;23.116;2022-10-17T07:23:19;96943.03;;;23.38;40.59
7774;BME280;3931;42.260;23.116;2022-10-17T07:25:45;96944.91;;;23.70;39.54
7774;BME280;3931;42.260;23.116;2022-10-17T07:28:12;96948.84;;;24.42;39.36
7774;BME280;3931;42.260;23.116;2022-10-17T07:30:38;96951.41;;;23.47;38.95
7774;BME280;3931;42.260;23.116;2022-10-17T07:33:05;96944.38;;;24.35;38.52
7774;BME280;3931;42.260;23.116;2022-10-17T07:35:31;96955.09;;;23.82;39.14
7774;BME280;3931;42.260;23.116;2022-10-17T07:37:57;96952.44;;;23.93;39.79
7774;BME280;3931;42.260;23.116;2022-10-17T07:40:24;96948.25;;;24.52;38.60
7774;BME280;3931;42.260;23.116;2022-10-17T07:42:50;96948.84;;;24.97;37.96
7774;BME280;3931;42.260;23.116;2022-10-17T07:45:16;96952.31;;;24.86;37.94
7774;BME280;3931;42.260;23.116;2022-10-17T07:47:42;96952.56;;;25.80;37.33
7774;BME280;3931;42.260;23.116;2022-10-17T07:50:09;96944.72;;;25.69;37.45
7774;BME280;3931;42.260;23.116;2022-10-17T07:52:35;96948.00;;;26.19;36.71
7774;BME280;3931;42.260;23.116;2022-10-17T07:55:01;96950.25;;;26.10;36.53
7774;BME280;3931;42.260;23.116;2022-10-17T07:57:27;96946.72;;;26.20;36.79
7774;BME280;3931;42.260;23.116;2022-10-17T07:59:54;96939.59;;;26.78;36.41
7774;BME280;3931;42.260;23.116;2022-10-17T08:02:21;96939.72;;;26.16;35.93
7774;BME280;3931;42.260;23.116;2022-10-17T08:04:48;96940.97;;;25.83;36.63
7774;BME280;3931;42.260;23.116;2022-10-17T08:07:14;96942.75;;;25.04;37.22
7774;BME280;3931;42.260;23.116;2022-10-17T08:09:40;96938.19;;;25.12;37.83
7774;BME280;3931;42.260;23.116;2022-10-17T08:12:06;96938.41;;;25.54;36.86
7774;BME280;3931;42.260;23.116;2022-10-17T08:14:33;96932.84;;;25.96;36.55
7774;BME280;3931;42.260;23.116;2022-10-17T08:16:59;96935.31;;;26.15;36.61
7774;BME280;3931;42.260;23.116;2022-10-17T08:19:26;96937.16;;;27.19;35.61
7774;BME280;3931;42.260;23.116;2022-10-17T08:21:52;96937.16;;;27.13;35.08
7774;BME280;3931;42.260;23.116;2022-10-17T08:24:18;96929.06;;;26.42;35.01
7774;BME280;3931;42.260;23.116;2022-10-17T08:26:45;96934.81;;;25.85;36.22
7774;BME280;3931;42.260;23.116;2022-10-17T08:29:12;96928.06;;;25.05;37.82
7774;BME280;3931;42.260;23.116;2022-10-17T08:31:39;96928.59;;;26.12;35.95
7774;BME280;3931;42.260;23.116;2022-10-17T08:34:05;96931.13;;;25.73;36.47
7774;BME280;3931;42.260;23.116;2022-10-17T08:36:31;96925.56;;;26.63;35.55
7774;BME280;3931;42.260;23.116;2022-10-17T08:38:57;96930.63;;;26.91;34.74
7774;BME280;3931;42.260;23.116;2022-10-17T08:41:39;96930.19;;;25.87;35.58
7774;BME280;3931;42.260;23.116;2022-10-17T08:44:14;96928.94;;;25.94;35.70
7774;BME280;3931;42.260;23.116;2022-10-17T08:46:47;96917.59;;;25.94;36.47
7774;BME280;3931;42.260;23.116;2022-10-17T08:49:19;96927.03;;;25.80;36.56
7774;BME280;3931;42.260;23.116;2022-10-17T08:51:51;96918.81;;;27.09;34.90
7774;BME280;3931;42.260;23.116;2022-10-17T08:54:22;96925.81;;;26.60;35.21
7774;BME280;3931;42.260;23.116;2022-10-17T08:56:52;96923.00;;;26.23;35.58
7774;BME280;3931;42.260;23.116;2022-10-17T08:59:23;96916.72;;;27.04;35.10
7774;BME280;3931;42.260;23.116;2022-10-17T09:01:57;96919.34;;;27.24;34.50
7774;BME280;3931;42.260;23.116;2022-10-17T09:07:26;96923.47;;;27.17;34.24
7774;BME280;3931;42.260;23.116;2022-10-17T09:10:02;96923.59;;;28.34;33.49
7774;BME280;3931;42.260;23.116;2022-10-17T09:12:40;96917.66;;;28.04;33.56
7774;BME280;3931;42.260;23.116;2022-10-17T09:15:30;96915.88;;;28.97;32.38
7774;BME280;3931;42.260;23.116;2022-10-17T09:18:02;96908.97;;;29.74;31.98
7774;BME280;3931;42.260;23.116;2022-10-17T09:20:35;96907.94;;;29.72;31.71
7774;BME280;3931;42.260;23.116;2022-10-17T09:23:09;96903.00;;;28.85;32.32
7774;BME280;3931;42.260;23.116;2022-10-17T09:25:41;96897.72;;;27.49;33.91
7774;BME280;3931;42.260;23.116;2022-10-17T09:28:14;96905.25;;;28.07;33.28
7774;BME280;3931;42.260;23.116;2022-10-17T09:30:43;96911.56;;;27.08;34.17
7774;BME280;3931;42.260;23.116;2022-10-17T09:33:13;96903.94;;;28.08;33.54
7774;BME280;3931;42.260;23.116;2022-10-17T09:35:40;96903.66;;;28.34;32.77
7774;BME280;3931;42.260;23.116;2022-10-17T09:38:12;96906.69;;;27.19;33.47
7774;BME280;3931;42.260;23.116;2022-10-17T09:40:40;96905.50;;;27.65;33.72
7774;BME280;3931;42.260;23.116;2022-10-17T09:43:07;96896.44;;;27.61;33.59
7774;BME280;3931;42.260;23.116;2022-10-17T09:45:40;96897.94;;;28.39;32.65
7774;BME280;3931;42.260;23.116;2022-10-17T09:48:15;96896.44;;;28.16;33.32
7774;BME280;3931;42.260;23.116;2022-10-17T09:50:44;96892.41;;;28.80;32.16
7774;BME280;3931;42.260;23.116;2022-10-17T09:53:13;96890.66;;;29.23;31.71
7774;BME280;3931;42.260;23.116;2022-10-17T09:55:42;96890.88;;;28.79;32.17
7774;BME280;3931;42.260;23.116;2022-10-17T09:58:10;96885.91;;;29.37;31.66
7774;BME280;3931;42.260;23.116;2022-10-17T10:00:39;96881.56;;;29.25;31.46
7774;BME280;3931;42.260;23.116;2022-10-17T10:03:10;96865.72;;;28.83;32.18
7774;BME280;3931;42.260;23.116;2022-10-17T10:05:39;96875.91;;;29.14;31.80
7774;BME280;3931;42.260;23.116;2022-10-17T10:08:13;96871.03;;;29.49;31.03
7774;BME280;3931;42.260;23.116;2022-10-17T10:10:40;96871.34;;;29.81;30.58
7774;BME280;3931;42.260;23.116;2022-10-17T10:13:16;96864.75;;;29.92;30.30
7774;BME280;3931;42.260;23.116;2022-10-17T10:15:45;96872.75;;;29.64;30.40
7774;BME280;3931;42.260;23.116;2022-10-17T10:18:28;96870.88;;;28.90;31.36
7774;BME280;3931;42.260;23.116;2022-10-17T10:21:05;96858.81;;;29.54;30.74
7774;BME280;3931;42.260;23.116;2022-10-17T10:23:32;96860.50;;;30.28;30.20
7774;BME280;3931;42.260;23.116;2022-10-17T10:26:01;96860.19;;;30.07;30.15
7774;BME280;3931;42.260;23.116;2022-10-17T10:28:30;96852.84;;;29.88;30.02
7774;BME280;3931;42.260;23.116;2022-10-17T10:30:57;96850.41;;;29.68;30.40
7774;BME280;3931;42.260;23.116;2022-10-17T10:33:27;96853.03;;;29.95;30.66
7774;BME280;3931;42.260;23.116;2022-10-17T10:35:56;96827.28;;;29.71;29.89
7774;BME280;3931;42.260;23.116;2022-10-17T10:38:24;96834.88;;;29.63;30.25
7774;BME280;3931;42.260;23.116;2022-10-17T10:40:52;96828.03;;;29.42;29.44
7774;BME280;3931;42.260;23.116;2022-10-17T10:43:23;96831.09;;;29.49;29.35
7774;BME280;3931;42.260;23.116;2022-10-17T10:45:50;96832.44;;;29.43;29.26
7774;BME280;3931;42.260;23.116;2022-10-17T10:48:20;96829.88;;;30.28;28.61
7774;BME280;3931;42.260;23.116;2022-10-17T10:50:49;96825.72;;;30.00;28.80
7774;BME280;3931;42.260;23.116;2022-10-17T10:53:28;96824.84;;;29.21;28.02
7774;BME280;3931;42.260;23.116;2022-10-17T10:55:57;96822.06;;;30.05;27.75
7774;BME280;3931;42.260;23.116;2022-10-17T10:58:31;96822.13;;;31.09;27.20
7774;BME280;3931;42.260;23.116;2022-10-17T11:01:02;96822.66;;;31.08;27.61
7774;BME280;3931;42.260;23.116;2022-10-17T11:03:34;96812.97;;;30.73;27.58
7774;BME280;3931;42.260;23.116;2022-10-17T11:06:05;96802.41;;;30.20;27.82
7774;BME280;3931;42.260;23.116;2022-10-17T11:08:42;96806.50;;;30.73;27.34
7774;BME280;3931;42.260;23.116;2022-10-17T11:11:13;96807.59;;;30.88;26.47
7774;BME280;3931;42.260;23.116;2022-10-17T11:13:46;96804.94;;;30.72;26.11
7774;BME280;3931;42.260;23.116;2022-10-17T11:16:24;96784.31;;;31.16;27.49
7774;BME280;3931;42.260;23.116;2022-10-17T11:18:58;96789.81;;;32.22;25.59
7774;BME280;3931;42.260;23.116;2022-10-17T11:21:37;96790.72;;;31.86;25.01
7774;BME280;3931;42.260;23.116;2022-10-17T11:24:11;96785.84;;;31.36;25.59
7774;BME280;3931;42.260;23.116;2022-10-17T11:26:42;96784.09;;;30.77;25.62
7774;BME280;3931;42.260;23.116;2022-10-17T11:29:11;96777.41;;;30.93;25.39
7774;BME280;3931;42.260;23.116;2022-10-17T11:31:43;96774.88;;;30.22;25.51
7774;BME280;3931;42.260;23.116;2022-10-17T11:34:17;96776.53;;;29.34;27.08
7774;BME280;3931;42.260;23.116;2022-10-17T11:36:47;96774.44;;;30.98;25.31
7774;BME280;3931;42.260;23.116;2022-10-17T11:39:18;96773.63;;;31.35;24.67
7774;BME280;3931;42.260;23.116;2022-10-17T11:41:48;96768.78;;;31.12;23.82
7774;BME280;3931;42.260;23.116;2022-10-17T11:44:20;96766.16;;;29.61;22.92
7774;BME280;3931;42.260;23.116;2022-10-17T11:46:50;96764.97;;;28.23;23.77
7774;BME280;3931;42.260;23.116;2022-10-17T11:49:21;96761.41;;;27.95;24.00
7774;BME280;3931;42.260;23.116;2022-10-17T11:51:52;96755.66;;;28.17;24.29
7774;BME280;3931;42.260;23.116;2022-10-17T11:54:23;96759.91;;;28.51;24.21
7774;BME280;3931;42.260;23.116;2022-10-17T11:57:02;96755.31;;;28.43;23.39
7774;BME280;3931;42.260;23.116;2022-10-17T11:59:49;96761.44;;;27.73;23.74
7774;BME280;3931;42.260;23.116;2022-10-17T12:02:28;96758.16;;;28.37;22.99
7774;BME280;3931;42.260;23.116;2022-10-17T12:05:00;96755.66;;;28.17;22.78
7774;BME280;3931;42.260;23.116;2022-10-17T12:07:37;96754.66;;;28.03;23.04
7774;BME280;3931;42.260;23.116;2022-10-17T12:10:21;96748.47;;;28.68;22.51
7774;BME280;3931;42.260;23.116;2022-10-17T12:12:50;96750.19;;;29.52;22.49
7774;BME280;3931;42.260;23.116;2022-10-17T12:15:29;96745.88;;;29.40;22.54
7774;BME280;3931;42.260;23.116;2022-10-17T12:17:57;96753.22;;;29.30;22.33
7774;BME280;3931;42.260;23.116;2022-10-17T12:20:31;96744.94;;;28.92;22.66
7774;BME280;3931;42.260;23.116;2022-10-17T12:23:18;96746.66;;;29.65;21.94
7774;BME280;3931;42.260;23.116;2022-10-17T12:25:50;96750.09;;;27.62;22.70
7774;BME280;3931;42.260;23.116;2022-10-17T12:28:23;96749.88;;;27.49;22.42
7774;BME280;3931;42.260;23.116;2022-10-17T12:30:56;96745.59;;;28.16;22.29
7774;BME280;3931;42.260;23.116;2022-10-17T12:33:29;96739.16;;;28.04;22.77
7774;BME280;3931;42.260;23.116;2022-10-17T12:39:39;96742.44;;;28.25;23.02
7774;BME280;3931;42.260;23.116;2022-10-17T12:41:54;96739.09;;;28.21;23.05
7774;BME280;3931;42.260;23.116;2022-10-17T12:44:34;96745.63;;;28.05;22.60
7774;BME280;3931;42.260;23.116;2022-10-17T12:47:27;96734.06;;;28.44;22.42
7774;BME280;3931;42.260;23.116;2022-10-17T12:49:54;96739.16;;;27.88;22.74
7774;BME280;3931;42.260;23.116;2022-10-17T12:52:24;96737.81;;;28.17;22.92
7774;BME280;3931;42.260;23.116;2022-10-17T12:55:06;96730.97;;;28.42;23.00
7774;BME280;3931;42.260;23.116;2022-10-17T12:57:39;96735.06;;;28.52;22.76
7774;BME280;3931;42.260;23.116;2022-10-17T13:00:15;96731.91;;;28.03;23.08
7774;BME280;3931;42.260;23.116;2022-10-17T13:02:42;96732.72;;;27.98;23.39
7774;BME280;3931;42.260;23.116;2022-10-17T13:05:14;96731.22;;;27.70;23.10
7774;BME280;3931;42.260;23.116;2022-10-17T13:07:43;96728.59;;;27.83;22.87
7774;BME280;3931;42.260;23.116;2022-10-17T13:10:18;96725.00;;;27.66;23.38
7774;BME280;3931;42.260;23.116;2022-10-17T13:12:46;96719.84;;;27.64;23.04
7774;BME280;3931;42.260;23.116;2022-10-17T13:15:16;96720.41;;;27.24;23.09
7774;BME280;3931;42.260;23.116;2022-10-17T13:17:43;96721.69;;;27.12;23.47
7774;BME280;3931;42.260;23.116;2022-10-17T13:20:19;96729.19;;;27.04;23.16
7774;BME280;3931;42.260;23.116;2022-10-17T13:22:45;96727.03;;;26.54;23.34
7774;BME280;3931;42.260;23.116;2022-10-17T13:25:15;96729.94;;;26.99;22.94
7774;BME280;3931;42.260;23.116;2022-10-17T13:27:42;96724.72;;;26.58;22.93
7774;BME280;3931;42.260;23.116;2022-10-17T13:30:23;96724.00;;;26.97;23.16